Time,TemperatureF,DewpointF,PressureIn,WindDirection,WindDirectionDegrees,WindSpeedMPH,WindSpeedGustMPH,Humidity,HourlyPrecipIn,Conditions,Clouds,dailyrainin,SolarRadiationWatts/m^2,SoftwareType,DateUTC
2013-04-29 00:02:00,58.0,44.0,-100.00,NW,319,6.0,11.0,60,0.00,,,0.00,0.000000,,2013-04-29 05:02:00,
2013-04-29 00:12:00,58.0,44.0,-100.00,NW,319,6.0,11.0,60,0.00,,,0.00,0.000000,,2013-04-29 05:12:00,
2013-04-29 00:20:00,56.0,45.0,-100.00,NW,315,6.0,13.0,67,0.00,,,0.00,0.000000,,2013-04-29 05:20:00,
2013-04-29 00:42:00,56.0,45.0,-100.00,NW,315,6.0,13.0,67,0.00,,,0.00,0.000000,,2013-04-29 05:42:00,
2013-04-29 00:52:00,56.0,45.0,-100.00,NW,315,6.0,13.0,67,0.00,,,0.00,0.000000,,2013-04-29 05:52:00,
2013-04-29 01:02:00,56.0,45.0,-100.00,NW,315,6.0,13.0,67,0.00,,,0.00,0.000000,,2013-04-29 06:02:00,
2013-04-29 01:11:00,56.0,45.0,-100.00,NW,315,6.0,13.0,67,0.00,,,0.00,0.000000,,2013-04-29 06:11:00,
2013-04-29 01:20:00,54.0,44.0,-100.00,NW,320,6.0,11.0,69,0.00,,,0.00,0.000000,,2013-04-29 06:20:00,
2013-04-29 01:42:00,54.0,44.0,-100.00,NW,320,6.0,11.0,69,0.00,,,0.00,0.000000,,2013-04-29 06:42:00,
2013-04-29 01:52:00,54.0,44.0,-100.00,NW,320,6.0,11.0,69,0.00,,,0.00,0.000000,,2013-04-29 06:52:00,
2013-04-29 02:01:00,54.0,44.0,-100.00,NW,320,6.0,11.0,69,0.00,,,0.00,0.000000,,2013-04-29 07:01:00,
2013-04-29 02:11:00,54.0,44.0,-100.00,NW,320,6.0,11.0,69,0.00,,,0.00,0.000000,,2013-04-29 07:11:00,
2013-04-29 02:20:00,52.0,43.0,-100.00,NW,321,6.0,12.0,71,0.00,,,0.00,0.000000,,2013-04-29 07:20:00,
2013-04-29 02:42:00,52.0,43.0,-100.00,NW,321,6.0,12.0,71,0.00,,,0.00,0.000000,,2013-04-29 07:42:00,
2013-04-29 02:52:00,52.0,43.0,-100.00,NW,321,6.0,12.0,71,0.00,,,0.00,0.000000,,2013-04-29 07:52:00,
2013-04-29 03:03:00,52.0,43.0,-100.00,NW,321,6.0,12.0,71,0.00,,,0.00,0.000000,,2013-04-29 08:03:00,
2013-04-29 03:11:00,52.0,43.0,-100.00,NW,321,6.0,12.0,71,0.00,,,0.00,0.000000,,2013-04-29 08:11:00,
2013-04-29 03:20:00,49.0,42.0,-100.00,NW,315,4.0,9.0,76,0.00,,,0.00,0.000000,,2013-04-29 08:20:00,
2013-04-29 03:42:00,49.0,42.0,-100.00,NW,315,4.0,9.0,76,0.00,,,0.00,0.000000,,2013-04-29 08:42:00,
2013-04-29 03:52:00,49.0,42.0,-100.00,NW,315,4.0,9.0,76,0.00,,,0.00,0.000000,,2013-04-29 08:52:00,
2013-04-29 04:01:00,49.0,42.0,-100.00,NW,315,4.0,9.0,76,0.00,,,0.00,0.000000,,2013-04-29 09:01:00,
2013-04-29 04:12:00,49.0,42.0,-100.00,NW,315,4.0,9.0,76,0.00,,,0.00,0.000000,,2013-04-29 09:12:00,
2013-04-29 04:20:00,46.0,39.0,-100.00,NNW,333,3.0,8.0,76,0.00,,,0.00,0.000000,,2013-04-29 09:20:00,
2013-04-29 04:42:00,46.0,39.0,-100.00,NNW,333,3.0,8.0,76,0.00,,,0.00,0.000000,,2013-04-29 09:42:00,
2013-04-29 04:53:00,46.0,39.0,-100.00,NNW,333,3.0,8.0,76,0.00,,,0.00,0.000000,,2013-04-29 09:53:00,
2013-04-29 05:02:00,46.0,39.0,-100.00,NNW,333,3.0,8.0,76,0.00,,,0.00,0.000000,,2013-04-29 10:02:00,
2013-04-29 05:12:00,46.0,39.0,-100.00,NNW,333,3.0,8.0,76,0.00,,,0.00,0.000000,,2013-04-29 10:12:00,
2013-04-29 05:20:00,42.0,38.0,-100.00,WNW,299,1.0,4.0,86,0.00,,,0.00,0.000000,,2013-04-29 10:20:00,
2013-04-29 05:42:00,42.0,38.0,-100.00,WNW,299,1.0,4.0,86,0.00,,,0.00,0.000000,,2013-04-29 10:42:00,
2013-04-29 05:52:00,42.0,38.0,-100.00,WNW,299,1.0,4.0,86,0.00,,,0.00,0.000000,,2013-04-29 10:52:00,
2013-04-29 06:03:00,42.0,38.0,-100.00,WNW,299,1.0,4.0,86,0.00,,,0.00,0.000000,,2013-04-29 11:03:00,
2013-04-29 06:12:00,42.0,38.0,-100.00,WNW,299,1.0,4.0,86,0.00,,,0.00,0.000000,,2013-04-29 11:12:00,
2013-04-29 06:20:00,39.0,36.0,-100.00,NW,325,2.0,3.0,89,0.00,,,0.00,2.000000,,2013-04-29 11:20:00,
2013-04-29 06:42:00,39.0,36.0,-100.00,NW,325,2.0,3.0,89,0.00,,,0.00,2.000000,,2013-04-29 11:42:00,
2013-04-29 06:52:00,39.0,36.0,-100.00,NW,325,2.0,3.0,89,0.00,,,0.00,2.000000,,2013-04-29 11:52:00,
2013-04-29 07:01:00,39.0,36.0,-100.00,NW,325,2.0,3.0,89,0.00,,,0.00,2.000000,,2013-04-29 12:01:00,
2013-04-29 07:12:00,39.0,36.0,-100.00,NW,325,2.0,3.0,89,0.00,,,0.00,2.000000,,2013-04-29 12:12:00,
2013-04-29 07:20:00,45.0,35.0,-100.00,NNW,337,3.0,5.0,68,0.00,,,0.00,97.000000,,2013-04-29 12:20:00,
2013-04-29 07:42:00,45.0,35.0,-100.00,NNW,337,3.0,5.0,68,0.00,,,0.00,97.000000,,2013-04-29 12:42:00,
2013-04-29 07:52:00,45.0,35.0,-100.00,NNW,337,3.0,5.0,68,0.00,,,0.00,97.000000,,2013-04-29 12:52:00,
2013-04-29 08:01:00,45.0,35.0,-100.00,NNW,337,3.0,5.0,68,0.00,,,0.00,97.000000,,2013-04-29 13:01:00,
2013-04-29 08:11:00,45.0,35.0,-100.00,NNW,337,3.0,5.0,68,0.00,,,0.00,97.000000,,2013-04-29 13:11:00,
2013-04-29 08:20:00,50.0,34.0,-100.00,NNE,32,5.0,10.0,53,0.00,,,0.00,298.000000,,2013-04-29 13:20:00,
2013-04-29 08:42:00,50.0,34.0,-100.00,NNE,32,5.0,10.0,53,0.00,,,0.00,298.000000,,2013-04-29 13:42:00,
2013-04-29 08:52:00,50.0,34.0,-100.00,NNE,32,5.0,10.0,53,0.00,,,0.00,298.000000,,2013-04-29 13:52:00,
2013-04-29 09:02:00,50.0,34.0,-100.00,NNE,32,5.0,10.0,53,0.00,,,0.00,298.000000,,2013-04-29 14:02:00,
2013-04-29 09:11:00,50.0,34.0,-100.00,NNE,32,5.0,10.0,53,0.00,,,0.00,298.000000,,2013-04-29 14:11:00,
2013-04-29 09:20:00,54.0,31.0,-100.00,NE,48,7.0,12.0,42,0.00,,,0.00,517.000000,,2013-04-29 14:20:00,
2013-04-29 09:42:00,54.0,31.0,-100.00,NE,48,7.0,12.0,42,0.00,,,0.00,517.000000,,2013-04-29 14:42:00,
2013-04-29 09:52:00,54.0,31.0,-100.00,NE,48,7.0,12.0,42,0.00,,,0.00,517.000000,,2013-04-29 14:52:00,
2013-04-29 10:01:00,54.0,31.0,-100.00,NE,48,7.0,12.0,42,0.00,,,0.00,517.000000,,2013-04-29 15:01:00,
2013-04-29 10:12:00,54.0,31.0,-100.00,NE,48,7.0,12.0,42,0.00,,,0.00,517.000000,,2013-04-29 15:12:00,
2013-04-29 10:20:00,58.0,32.0,-100.00,ENE,70,5.0,12.0,37,0.00,,,0.00,725.000000,,2013-04-29 15:20:00,
2013-04-29 10:43:00,58.0,32.0,-100.00,ENE,70,5.0,12.0,37,0.00,,,0.00,725.000000,,2013-04-29 15:43:00,
2013-04-29 10:53:00,58.0,32.0,-100.00,ENE,70,5.0,12.0,37,0.00,,,0.00,725.000000,,2013-04-29 15:53:00,
2013-04-29 11:03:00,58.0,32.0,-100.00,ENE,70,5.0,12.0,37,0.00,,,0.00,725.000000,,2013-04-29 16:03:00,
2013-04-29 11:12:00,58.0,32.0,-100.00,ENE,70,5.0,12.0,37,0.00,,,0.00,725.000000,,2013-04-29 16:12:00,
2013-04-29 11:20:00,63.0,29.0,-100.00,East,80,4.0,10.0,27,0.00,,,0.00,900.000000,,2013-04-29 16:20:00,
2013-04-29 11:42:00,63.0,29.0,-100.00,East,80,4.0,10.0,27,0.00,,,0.00,900.000000,,2013-04-29 16:42:00,
2013-04-29 11:52:00,63.0,29.0,-100.00,East,80,4.0,10.0,27,0.00,,,0.00,900.000000,,2013-04-29 16:52:00,
2013-04-29 12:02:00,63.0,29.0,-100.00,East,80,4.0,10.0,27,0.00,,,0.00,900.000000,,2013-04-29 17:02:00,
2013-04-29 12:12:00,63.0,29.0,-100.00,East,80,4.0,10.0,27,0.00,,,0.00,900.000000,,2013-04-29 17:12:00,
2013-04-29 12:20:00,66.0,26.0,-100.00,NW,310,3.0,10.0,22,0.00,,,0.00,1020.000000,,2013-04-29 17:20:00,
2013-04-29 12:42:00,66.0,26.0,-100.00,NW,310,3.0,10.0,22,0.00,,,0.00,1020.000000,,2013-04-29 17:42:00,
2013-04-29 12:52:00,66.0,26.0,-100.00,NW,310,3.0,10.0,22,0.00,,,0.00,1020.000000,,2013-04-29 17:52:00,
2013-04-29 13:01:00,66.0,26.0,-100.00,NW,310,3.0,10.0,22,0.00,,,0.00,1020.000000,,2013-04-29 18:01:00,
2013-04-29 13:13:00,66.0,26.0,-100.00,NW,310,3.0,10.0,22,0.00,,,0.00,1020.000000,,2013-04-29 18:13:00,
2013-04-29 13:20:00,69.0,27.0,-100.00,NE,40,4.0,9.0,21,0.00,,,0.00,1076.000000,,2013-04-29 18:20:00,
2013-04-29 13:52:00,69.0,27.0,-100.00,NE,40,4.0,9.0,21,0.00,,,0.00,1076.000000,,2013-04-29 18:52:00,
2013-04-29 14:01:00,69.0,27.0,-100.00,NE,40,4.0,9.0,21,0.00,,,0.00,1076.000000,,2013-04-29 19:01:00,
2013-04-29 14:11:00,69.0,27.0,-100.00,NE,40,4.0,9.0,21,0.00,,,0.00,1076.000000,,2013-04-29 19:11:00,
2013-04-29 14:20:00,72.0,27.0,-100.00,NNW,344,5.0,11.0,19,0.00,,,0.00,1073.000000,,2013-04-29 19:20:00,
2013-04-29 14:42:00,72.0,27.0,-100.00,NNW,344,5.0,11.0,19,0.00,,,0.00,1073.000000,,2013-04-29 19:42:00,
2013-04-29 14:52:00,72.0,27.0,-100.00,NNW,344,5.0,11.0,19,0.00,,,0.00,1073.000000,,2013-04-29 19:52:00,
2013-04-29 15:02:00,72.0,27.0,-100.00,NNW,344,5.0,11.0,19,0.00,,,0.00,1073.000000,,2013-04-29 20:02:00,
2013-04-29 15:11:00,72.0,27.0,-100.00,NNW,344,5.0,11.0,19,0.00,,,0.00,1073.000000,,2013-04-29 20:11:00,
2013-04-29 15:20:00,73.0,30.0,-100.00,SW,224,5.0,12.0,20,0.00,,,0.00,999.000000,,2013-04-29 20:20:00,
2013-04-29 15:42:00,73.0,30.0,-100.00,SW,224,5.0,12.0,20,0.00,,,0.00,999.000000,,2013-04-29 20:42:00,
2013-04-29 15:52:00,73.0,30.0,-100.00,SW,224,5.0,12.0,20,0.00,,,0.00,999.000000,,2013-04-29 20:52:00,
2013-04-29 16:01:00,73.0,30.0,-100.00,SW,224,5.0,12.0,20,0.00,,,0.00,999.000000,,2013-04-29 21:01:00,
2013-04-29 16:11:00,73.0,30.0,-100.00,SW,224,5.0,12.0,20,0.00,,,0.00,999.000000,,2013-04-29 21:11:00,
2013-04-29 16:20:00,75.0,32.0,-100.00,SE,145,6.0,14.0,21,0.00,,,0.00,828.000000,,2013-04-29 21:20:00,
2013-04-29 16:43:00,75.0,32.0,-100.00,SE,145,6.0,14.0,21,0.00,,,0.00,828.000000,,2013-04-29 21:43:00,
2013-04-29 16:53:00,75.0,32.0,-100.00,SE,145,6.0,14.0,21,0.00,,,0.00,828.000000,,2013-04-29 21:53:00,
2013-04-29 17:02:00,75.0,32.0,-100.00,SE,145,6.0,14.0,21,0.00,,,0.00,828.000000,,2013-04-29 22:02:00,
2013-04-29 17:13:00,75.0,32.0,-100.00,SE,145,6.0,14.0,21,0.00,,,0.00,828.000000,,2013-04-29 22:13:00,
2013-04-29 17:20:00,73.0,30.0,-100.00,SSE,166,7.0,17.0,20,0.00,,,0.00,561.000000,,2013-04-29 22:20:00,
2013-04-29 17:42:00,73.0,30.0,-100.00,SSE,166,7.0,17.0,20,0.00,,,0.00,561.000000,,2013-04-29 22:42:00,
2013-04-29 17:53:00,73.0,30.0,-100.00,SSE,166,7.0,17.0,20,0.00,,,0.00,561.000000,,2013-04-29 22:53:00,
2013-04-29 18:02:00,73.0,30.0,-100.00,SSE,166,7.0,17.0,20,0.00,,,0.00,561.000000,,2013-04-29 23:02:00,
2013-04-29 18:11:00,73.0,30.0,-100.00,SSE,166,7.0,17.0,20,0.00,,,0.00,561.000000,,2013-04-29 23:11:00,
2013-04-29 18:20:00,72.0,35.0,-100.00,SSE,158,8.0,14.0,26,0.00,,,0.00,356.000000,,2013-04-29 23:20:00,
2013-04-29 18:42:00,72.0,35.0,-100.00,SSE,158,8.0,14.0,26,0.00,,,0.00,356.000000,,2013-04-29 23:42:00,
2013-04-29 18:52:00,72.0,35.0,-100.00,SSE,158,8.0,14.0,26,0.00,,,0.00,356.000000,,2013-04-29 23:52:00,
2013-04-29 19:01:00,72.0,35.0,-100.00,SSE,158,8.0,14.0,26,0.00,,,0.00,356.000000,,2013-04-30 00:01:00,
2013-04-29 19:11:00,72.0,35.0,-100.00,SSE,158,8.0,14.0,26,0.00,,,0.00,356.000000,,2013-04-30 00:11:00,
2013-04-29 19:20:00,70.0,40.0,-100.00,SSW,197,6.0,15.0,34,0.00,,,0.00,162.000000,,2013-04-30 00:20:00,
2013-04-29 19:42:00,70.0,40.0,-100.00,SSW,197,6.0,15.0,34,0.00,,,0.00,162.000000,,2013-04-30 00:42:00,
2013-04-29 19:52:00,70.0,40.0,-100.00,SSW,197,6.0,15.0,34,0.00,,,0.00,162.000000,,2013-04-30 00:52:00,
2013-04-29 20:02:00,70.0,40.0,-100.00,SSW,197,6.0,15.0,34,0.00,,,0.00,162.000000,,2013-04-30 01:02:00,
2013-04-29 20:11:00,70.0,40.0,-100.00,SSW,197,6.0,15.0,34,0.00,,,0.00,162.000000,,2013-04-30 01:11:00,
2013-04-29 20:20:00,66.0,42.0,-100.00,SE,145,2.0,9.0,42,0.00,,,0.00,30.000000,,2013-04-30 01:20:00,
2013-04-29 20:42:00,66.0,42.0,-100.00,SE,145,2.0,9.0,42,0.00,,,0.00,30.000000,,2013-04-30 01:42:00,
2013-04-29 20:52:00,66.0,42.0,-100.00,SE,145,2.0,9.0,42,0.00,,,0.00,30.000000,,2013-04-30 01:52:00,
2013-04-29 21:01:00,66.0,42.0,-100.00,SE,145,2.0,9.0,42,0.00,,,0.00,30.000000,,2013-04-30 02:01:00,
2013-04-29 21:11:00,66.0,42.0,-100.00,SE,145,2.0,9.0,42,0.00,,,0.00,30.000000,,2013-04-30 02:11:00,
2013-04-29 21:20:00,58.0,44.0,-100.00,ENE,74,2.0,4.0,59,0.00,,,0.00,0.000000,,2013-04-30 02:20:00,
2013-04-29 21:51:00,58.0,44.0,-100.00,ENE,74,2.0,4.0,59,0.00,,,0.00,0.000000,,2013-04-30 02:51:00,
2013-04-29 22:01:00,58.0,44.0,-100.00,ENE,74,2.0,4.0,59,0.00,,,0.00,0.000000,,2013-04-30 03:01:00,
2013-04-29 22:11:00,58.0,44.0,-100.00,ENE,74,2.0,4.0,59,0.00,,,0.00,0.000000,,2013-04-30 03:11:00,
2013-04-29 23:20:00,60.0,45.0,-100.00,East,83,4.0,7.0,57,-99.99,,,0.00,0.000000,,2013-04-30 04:20:00,
2013-04-29 23:52:00,60.0,45.0,-100.00,East,83,4.0,7.0,57,-99.99,,,0.00,0.000000,,2013-04-30 04:52:00,